createdAt,value
2022-12-18T00:00:01.857Z,96.1
2022-12-18T00:01:02.464Z,96.9
2022-12-18T00:02:02.337Z,97.2
2022-12-18T00:03:01.552Z,97.5
2022-12-18T00:04:04.084Z,96.8
2022-12-18T00:05:01.858Z,96.3
2022-12-18T00:06:02.440Z,98.2
2022-12-18T00:07:01.504Z,98.2
2022-12-18T00:08:02.291Z,97.5
2022-12-18T00:09:02.992Z,96.9
2022-12-18T00:10:01.465Z,97.7
2022-12-18T00:11:04.814Z,99.0
2022-12-18T00:13:03.908Z,98.6
2022-12-18T00:14:02.121Z,100.0
2022-12-18T00:15:01.465Z,99.0
2022-12-18T00:16:03.311Z,100.0
2022-12-18T00:17:01.448Z,99.6
2022-12-18T00:18:01.484Z,99.4
2022-12-18T00:19:02.021Z,99.9
2022-12-18T00:20:02.311Z,100.0
2022-12-18T00:21:03.697Z,99.6
2022-12-18T00:22:01.786Z,99.8
2022-12-18T00:23:01.861Z,100.0
2022-12-18T00:24:02.527Z,100.0
2022-12-18T00:25:02.078Z,100.0
2022-12-18T00:26:03.515Z,100.0
2022-12-18T00:27:01.810Z,100.0
2022-12-18T00:28:02.301Z,100.0
2022-12-18T00:29:03.825Z,100.0
2022-12-18T00:30:01.493Z,100.0
2022-12-18T00:31:02.605Z,100.0
2022-12-18T00:32:01.576Z,100.0
2022-12-18T00:33:01.479Z,100.0
2022-12-18T00:34:01.838Z,100.0
2022-12-18T00:35:02.327Z,100.0
2022-12-18T00:36:01.760Z,100.0
2022-12-18T00:37:01.796Z,100.0
2022-12-18T00:38:01.803Z,100.0
2022-12-18T00:39:04.056Z,100.0
2022-12-18T00:40:01.990Z,100.0
2022-12-18T00:41:02.069Z,100.0
2022-12-18T00:42:01.456Z,100.0
2022-12-18T00:43:01.475Z,100.0
2022-12-18T00:44:02.725Z,100.0
2022-12-18T00:45:01.801Z,100.0
2022-12-18T00:46:01.951Z,100.0
2022-12-18T00:47:01.458Z,100.0
2022-12-18T00:48:01.559Z,100.0
2022-12-18T00:49:02.840Z,100.0
2022-12-18T00:50:01.846Z,100.0
2022-12-18T00:51:01.786Z,100.0
2022-12-18T00:52:01.459Z,100.0
2022-12-18T00:53:01.800Z,100.0
2022-12-18T00:54:01.849Z,100.0
2022-12-18T00:55:06.260Z,100.0
2022-12-18T00:56:01.795Z,100.0
2022-12-18T00:57:01.861Z,100.0
2022-12-18T00:58:01.445Z,100.0
2022-12-18T00:59:01.480Z,100.0
2022-12-18T01:00:02.511Z,100.0
2022-12-18T01:01:03.967Z,100.0
2022-12-18T01:02:01.642Z,100.0
2022-12-18T01:03:02.550Z,100.0
2022-12-18T01:04:03.217Z,100.0
2022-12-18T01:05:01.462Z,100.0
2022-12-18T01:06:06.770Z,100.0
2022-12-18T01:07:01.465Z,100.0
2022-12-18T01:08:01.721Z,100.0
2022-12-18T01:09:01.884Z,100.0
2022-12-18T01:10:01.457Z,100.0
2022-12-18T01:11:07.256Z,100.0
2022-12-18T01:12:01.825Z,100.0
2022-12-18T01:13:01.465Z,100.0
2022-12-18T01:14:01.486Z,100.0
2022-12-18T01:15:01.953Z,100.0
2022-12-18T01:16:02.175Z,100.0
2022-12-18T01:17:01.790Z,100.0
2022-12-18T01:18:01.444Z,100.0
2022-12-18T01:19:02.068Z,100.0
2022-12-18T01:20:01.537Z,100.0
2022-12-18T01:21:06.070Z,100.0
2022-12-18T01:22:01.798Z,100.0
2022-12-18T01:23:01.474Z,100.0
2022-12-18T01:24:01.798Z,100.0
2022-12-18T01:25:03.264Z,100.0
2022-12-18T01:26:05.664Z,100.0
2022-12-18T01:27:01.822Z,100.0
2022-12-18T01:28:02.022Z,100.0
2022-12-18T01:29:01.451Z,100.0
2022-12-18T01:30:02.669Z,100.0
2022-12-18T01:31:12.610Z,100.0
2022-12-18T01:32:01.521Z,100.0
2022-12-18T01:33:01.470Z,100.0
2022-12-18T01:34:01.904Z,100.0
2022-12-18T01:35:01.684Z,100.0
2022-12-18T01:36:01.450Z,100.0
2022-12-18T01:37:03.223Z,100.0
2022-12-18T01:38:01.790Z,100.0
2022-12-18T01:39:03.797Z,100.0
2022-12-18T01:40:01.699Z,100.0
2022-12-18T01:41:02.400Z,100.0
2022-12-18T01:42:03.194Z,100.0
2022-12-18T01:43:01.823Z,100.0
2022-12-18T01:44:01.463Z,100.0
2022-12-18T01:45:04.705Z,100.0
2022-12-18T01:46:01.494Z,100.0
2022-12-18T01:47:01.608Z,100.0
2022-12-18T01:48:05.395Z,100.0
2022-12-18T01:49:02.295Z,100.0
2022-12-18T01:50:06.657Z,100.0
2022-12-18T01:51:01.734Z,100.0
2022-12-18T01:52:02.105Z,100.0
2022-12-18T01:53:10.170Z,100.0
2022-12-18T01:54:01.473Z,100.0
2022-12-18T01:55:04.165Z,100.0
2022-12-18T01:56:01.862Z,100.0
2022-12-18T01:57:01.858Z,100.0
2022-12-18T01:58:02.294Z,100.0
2022-12-18T01:59:05.115Z,100.0
2022-12-18T02:00:05.799Z,100.0
2022-12-18T02:01:01.891Z,100.0
2022-12-18T02:02:03.525Z,100.0
2022-12-18T02:03:02.304Z,100.0
2022-12-18T02:04:19.399Z,100.0
2022-12-18T02:05:03.005Z,100.0
2022-12-18T02:06:10.469Z,100.0
2022-12-18T02:07:11.579Z,100.0
2022-12-18T02:08:10.406Z,100.0
2022-12-18T02:09:11.386Z,100.0
2022-12-18T02:10:07.545Z,100.0
2022-12-18T02:11:07.540Z,100.0
2022-12-18T02:12:10.265Z,100.0
2022-12-18T02:13:10.975Z,100.0
2022-12-18T02:14:12.742Z,100.0
2022-12-18T02:15:09.860Z,100.0
2022-12-18T02:16:08.245Z,100.0
2022-12-18T02:17:07.521Z,100.0
2022-12-18T02:18:07.991Z,100.0
2022-12-18T02:19:15.424Z,100.0
2022-12-18T02:20:12.449Z,100.0
2022-12-18T02:21:11.822Z,100.0
2022-12-18T02:22:13.046Z,100.0
2022-12-18T02:23:18.046Z,100.0
2022-12-18T02:24:17.746Z,100.0
2022-12-18T02:25:12.687Z,100.0
2022-12-18T02:26:07.877Z,100.0
2022-12-18T02:27:05.647Z,100.0
2022-12-18T02:28:07.306Z,100.0
2022-12-18T02:29:07.123Z,100.0
2022-12-18T02:30:04.319Z,100.0
2022-12-18T02:31:06.201Z,100.0
2022-12-18T02:32:06.152Z,100.0
2022-12-18T02:33:04.988Z,100.0
2022-12-18T02:34:04.910Z,100.0
2022-12-18T02:35:04.590Z,100.0
2022-12-18T02:36:04.647Z,100.0
2022-12-18T02:37:06.113Z,100.0
2022-12-18T02:38:03.377Z,100.0
2022-12-18T02:39:03.491Z,100.0
2022-12-18T02:40:04.886Z,100.0
2022-12-18T02:41:04.352Z,100.0
2022-12-18T02:42:02.213Z,100.0
2022-12-18T02:43:10.575Z,100.0
2022-12-18T02:44:07.129Z,100.0
2022-12-18T02:45:01.805Z,100.0
2022-12-18T02:46:21.114Z,100.0
2022-12-18T02:47:02.660Z,100.0
2022-12-18T02:48:02.001Z,100.0
2022-12-18T02:49:11.688Z,100.0
2022-12-18T02:50:14.836Z,100.0
2022-12-18T02:51:08.649Z,100.0
2022-12-18T02:52:07.973Z,100.0
2022-12-18T02:53:11.053Z,100.0
2022-12-18T02:54:10.461Z,100.0
2022-12-18T02:55:13.424Z,100.0
2022-12-18T02:56:07.621Z,100.0
2022-12-18T02:57:10.197Z,100.0
2022-12-18T02:58:09.119Z,100.0
2022-12-18T02:59:06.560Z,100.0
2022-12-18T03:00:08.002Z,100.0
2022-12-18T03:01:09.831Z,100.0
2022-12-18T03:02:09.969Z,100.0
2022-12-18T03:03:09.820Z,100.0
2022-12-18T03:04:07.303Z,100.0
2022-12-18T03:05:09.617Z,100.0
2022-12-18T03:06:06.350Z,100.0
2022-12-18T03:07:08.026Z,100.0
2022-12-18T03:08:06.967Z,100.0
2022-12-18T03:09:09.216Z,100.0
2022-12-18T03:10:03.200Z,100.0
2022-12-18T03:11:04.874Z,100.0
2022-12-18T03:12:10.590Z,100.0
2022-12-18T03:13:06.292Z,100.0
2022-12-18T03:14:04.128Z,100.0
2022-12-18T03:15:11.052Z,100.0
2022-12-18T03:16:05.500Z,100.0
2022-12-18T03:17:06.388Z,100.0
2022-12-18T03:18:07.913Z,100.0
2022-12-18T03:19:07.040Z,100.0
2022-12-18T03:20:07.744Z,100.0
2022-12-18T03:21:06.134Z,100.0
2022-12-18T03:22:06.248Z,100.0
2022-12-18T03:23:07.329Z,100.0
2022-12-18T03:24:06.181Z,100.0
2022-12-18T03:25:06.047Z,100.0
2022-12-18T03:26:07.693Z,100.0
2022-12-18T03:27:05.565Z,100.0
2022-12-18T03:28:06.436Z,100.0
2022-12-18T03:29:06.549Z,100.0
2022-12-18T03:30:05.607Z,100.0
2022-12-18T03:31:05.110Z,100.0
2022-12-18T03:32:05.986Z,100.0
2022-12-18T03:33:08.760Z,100.0
2022-12-18T03:34:09.184Z,100.0
2022-12-18T03:35:05.922Z,100.0
2022-12-18T03:36:01.787Z,100.0
2022-12-18T03:37:02.329Z,100.0
2022-12-18T03:38:02.055Z,100.0
2022-12-18T03:39:01.479Z,100.0
2022-12-18T03:40:02.101Z,100.0
2022-12-18T03:41:10.708Z,100.0
2022-12-18T03:42:06.782Z,100.0
2022-12-18T03:43:09.030Z,100.0
2022-12-18T03:44:10.939Z,100.0
2022-12-18T03:45:10.284Z,100.0
2022-12-18T03:46:07.088Z,100.0
2022-12-18T03:47:08.097Z,100.0
2022-12-18T03:48:07.606Z,100.0
2022-12-18T03:49:09.870Z,100.0
2022-12-18T03:50:12.954Z,100.0
2022-12-18T03:51:08.149Z,100.0
2022-12-18T03:52:06.292Z,100.0
2022-12-18T03:53:17.480Z,100.0
2022-12-18T03:54:04.184Z,100.0
2022-12-18T03:55:03.635Z,100.0
2022-12-18T03:56:04.071Z,100.0
2022-12-18T03:57:09.957Z,100.0
2022-12-18T03:58:03.680Z,100.0
2022-12-18T03:59:04.944Z,100.0
2022-12-18T04:00:06.081Z,100.0
2022-12-18T04:01:06.037Z,100.0
2022-12-18T04:02:04.340Z,100.0
2022-12-18T04:03:03.598Z,100.0
2022-12-18T04:04:03.858Z,100.0
2022-12-18T04:05:07.488Z,100.0
2022-12-18T04:06:03.085Z,100.0
2022-12-18T04:07:03.062Z,100.0
2022-12-18T04:08:02.300Z,100.0
2022-12-18T04:09:01.927Z,100.0
2022-12-18T04:10:03.592Z,100.0
2022-12-18T04:11:02.570Z,100.0
2022-12-18T04:12:01.461Z,100.0
2022-12-18T04:13:01.829Z,100.0
2022-12-18T04:14:05.856Z,100.0
2022-12-18T04:15:02.073Z,100.0
2022-12-18T04:16:01.654Z,100.0
2022-12-18T04:17:01.938Z,100.0
2022-12-18T04:18:01.466Z,100.0
2022-12-18T04:19:01.546Z,100.0
2022-12-18T04:20:01.808Z,100.0
2022-12-18T04:21:02.490Z,100.0
2022-12-18T04:22:01.462Z,100.0
2022-12-18T04:23:01.476Z,100.0
2022-12-18T04:24:01.819Z,100.0
2022-12-18T04:25:01.464Z,100.0
2022-12-18T04:26:01.945Z,100.0
2022-12-18T04:27:01.554Z,100.0
2022-12-18T04:28:01.463Z,100.0
2022-12-18T04:29:01.672Z,100.0
2022-12-18T04:30:01.819Z,100.0
2022-12-18T04:31:01.569Z,100.0
2022-12-18T04:32:01.458Z,100.0
2022-12-18T04:33:01.478Z,100.0
2022-12-18T04:34:01.645Z,100.0
2022-12-18T04:35:01.693Z,100.0
2022-12-18T04:36:01.549Z,100.0
2022-12-18T04:37:02.223Z,100.0
2022-12-18T04:38:01.473Z,100.0
2022-12-18T04:39:01.462Z,100.0
2022-12-18T04:40:01.457Z,100.0
2022-12-18T04:41:01.451Z,100.0
2022-12-18T04:42:01.842Z,100.0
2022-12-18T04:43:02.042Z,100.0
2022-12-18T04:44:01.467Z,100.0
2022-12-18T04:45:01.474Z,100.0
2022-12-18T04:46:02.340Z,100.0
2022-12-18T04:47:01.490Z,100.0
2022-12-18T04:48:03.526Z,100.0
2022-12-18T04:49:01.835Z,100.0
2022-12-18T04:50:01.452Z,100.0
2022-12-18T04:51:01.516Z,100.0
2022-12-18T04:52:01.815Z,100.0
2022-12-18T04:53:01.454Z,100.0
2022-12-18T04:54:01.471Z,100.0
2022-12-18T04:55:01.820Z,100.0
2022-12-18T04:56:03.478Z,100.0
2022-12-18T04:57:01.466Z,100.0
2022-12-18T04:58:01.785Z,100.0
2022-12-18T04:59:01.605Z,100.0
2022-12-18T05:00:03.175Z,100.0
2022-12-18T05:01:01.845Z,100.0
2022-12-18T05:02:01.912Z,100.0
2022-12-18T05:03:02.875Z,100.0
2022-12-18T05:04:01.760Z,100.0
2022-12-18T05:05:02.151Z,100.0
2022-12-18T05:06:02.287Z,100.0
2022-12-18T05:07:01.485Z,100.0
2022-12-18T05:08:01.541Z,100.0
2022-12-18T05:09:01.827Z,100.0
2022-12-18T05:10:03.414Z,100.0
2022-12-18T05:11:03.834Z,100.0
2022-12-18T05:12:01.489Z,100.0
2022-12-18T05:13:01.571Z,100.0
2022-12-18T05:14:01.883Z,100.0
2022-12-18T05:15:01.457Z,100.0
2022-12-18T05:16:02.838Z,100.0
2022-12-18T05:17:01.562Z,100.0
2022-12-18T05:18:02.551Z,100.0
2022-12-18T05:19:01.470Z,100.0
2022-12-18T05:20:01.464Z,100.0
2022-12-18T05:21:02.162Z,100.0
2022-12-18T05:22:02.235Z,100.0
2022-12-18T05:23:01.962Z,100.0
2022-12-18T05:24:01.825Z,100.0
2022-12-18T05:25:01.810Z,100.0
2022-12-18T05:26:04.829Z,100.0
2022-12-18T05:27:01.624Z,100.0
2022-12-18T05:28:01.469Z,100.0
2022-12-18T05:29:01.821Z,100.0
2022-12-18T05:30:01.812Z,100.0
2022-12-18T05:31:04.642Z,100.0
2022-12-18T05:32:01.723Z,100.0
2022-12-18T05:33:01.804Z,100.0
2022-12-18T05:34:01.463Z,100.0
2022-12-18T05:35:02.345Z,100.0
2022-12-18T05:36:04.095Z,100.0
2022-12-18T05:37:01.794Z,100.0
2022-12-18T05:38:01.453Z,100.0
2022-12-18T05:39:01.517Z,100.0
2022-12-18T05:40:02.364Z,100.0
2022-12-18T05:41:02.492Z,100.0
2022-12-18T05:42:01.471Z,100.0
2022-12-18T05:43:01.684Z,100.0
2022-12-18T05:44:01.645Z,100.0
2022-12-18T05:45:01.451Z,100.0
2022-12-18T05:46:04.488Z,100.0
2022-12-18T05:47:01.869Z,100.0
2022-12-18T05:48:01.447Z,100.0
2022-12-18T05:49:01.971Z,100.0
2022-12-18T05:50:01.471Z,100.0
2022-12-18T05:51:06.342Z,100.0
2022-12-18T05:52:02.199Z,100.0
2022-12-18T05:53:01.472Z,100.0
2022-12-18T05:54:01.828Z,100.0
2022-12-18T05:55:01.975Z,100.0
2022-12-18T05:56:03.017Z,100.0
2022-12-18T05:57:01.488Z,100.0
2022-12-18T05:58:01.821Z,100.0
2022-12-18T05:59:01.464Z,100.0
2022-12-18T06:00:01.525Z,100.0
2022-12-18T06:01:07.873Z,100.0
2022-12-18T06:02:01.969Z,100.0
2022-12-18T06:03:02.533Z,100.0
2022-12-18T06:04:01.564Z,100.0
2022-12-18T06:05:01.989Z,100.0
2022-12-18T06:06:01.500Z,100.0
2022-12-18T06:07:04.392Z,100.0
2022-12-18T06:08:01.614Z,100.0
2022-12-18T06:09:01.523Z,100.0
2022-12-18T06:10:01.797Z,100.0
2022-12-18T06:11:01.455Z,100.0
2022-12-18T06:12:01.769Z,100.0
2022-12-18T06:13:01.838Z,100.0
2022-12-18T06:14:03.043Z,100.0
2022-12-18T06:15:02.288Z,100.0
2022-12-18T06:16:02.538Z,100.0
2022-12-18T06:17:01.449Z,100.0
2022-12-18T06:18:01.795Z,100.0
2022-12-18T06:19:03.827Z,100.0
2022-12-18T06:20:01.866Z,100.0
2022-12-18T06:21:01.794Z,100.0
2022-12-18T06:22:01.459Z,100.0
2022-12-18T06:23:01.946Z,100.0
2022-12-18T06:24:01.462Z,100.0
2022-12-18T06:25:01.531Z,100.0
2022-12-18T06:26:04.592Z,100.0
2022-12-18T06:27:01.692Z,100.0
2022-12-18T06:28:01.455Z,100.0
2022-12-18T06:29:01.482Z,100.0
2022-12-18T06:30:02.237Z,100.0
2022-12-18T06:31:03.912Z,100.0
2022-12-18T06:32:01.493Z,100.0
2022-12-18T06:33:01.455Z,100.0
2022-12-18T06:34:03.665Z,100.0
2022-12-18T06:35:01.820Z,100.0
2022-12-18T06:36:04.060Z,100.0
2022-12-18T06:37:01.784Z,100.0
2022-12-18T06:38:02.374Z,100.0
2022-12-18T06:39:01.859Z,100.0
2022-12-18T06:40:01.457Z,100.0
2022-12-18T06:41:06.919Z,100.0
2022-12-18T06:42:01.451Z,100.0
2022-12-18T06:43:01.459Z,100.0
2022-12-18T06:44:01.487Z,100.0
2022-12-18T06:45:01.466Z,100.0
2022-12-18T06:46:02.641Z,100.0
2022-12-18T06:47:01.447Z,100.0
2022-12-18T06:48:01.676Z,100.0
2022-12-18T06:49:02.291Z,100.0
2022-12-18T06:50:01.487Z,100.0
2022-12-18T06:51:02.791Z,100.0
2022-12-18T06:52:01.448Z,100.0
2022-12-18T06:53:01.474Z,100.0
2022-12-18T06:54:01.549Z,100.0
2022-12-18T06:55:01.495Z,100.0
2022-12-18T06:56:09.241Z,100.0
2022-12-18T06:57:01.461Z,100.0
2022-12-18T06:58:01.960Z,100.0
2022-12-18T06:59:01.966Z,100.0
2022-12-18T07:00:02.083Z,100.0
2022-12-18T07:01:02.852Z,100.0
2022-12-18T07:02:01.868Z,100.0
2022-12-18T07:03:02.064Z,100.0
2022-12-18T07:04:01.474Z,100.0
2022-12-18T07:05:07.440Z,100.0
2022-12-18T07:06:02.811Z,100.0
2022-12-18T07:07:01.794Z,100.0
2022-12-18T07:08:01.449Z,100.0
2022-12-18T07:09:01.462Z,100.0
2022-12-18T07:10:01.834Z,100.0
2022-12-18T07:11:04.238Z,100.0
2022-12-18T07:12:01.895Z,100.0
2022-12-18T07:13:01.495Z,100.0
2022-12-18T07:14:01.542Z,100.0
2022-12-18T07:15:01.602Z,100.0
2022-12-18T07:16:10.891Z,100.0
2022-12-18T07:17:01.956Z,100.0
2022-12-18T07:18:01.942Z,100.0
2022-12-18T07:19:01.479Z,100.0
2022-12-18T07:20:01.485Z,100.0
2022-12-18T07:21:04.137Z,100.0
2022-12-18T07:22:02.355Z,100.0
2022-12-18T07:23:02.349Z,100.0
2022-12-18T07:24:01.451Z,100.0
2022-12-18T07:25:01.474Z,100.0
2022-12-18T07:26:02.927Z,100.0
2022-12-18T07:27:01.962Z,100.0
2022-12-18T07:28:02.258Z,100.0
2022-12-18T07:29:01.820Z,100.0
2022-12-18T07:30:01.509Z,100.0
2022-12-18T07:31:03.851Z,100.0
2022-12-18T07:32:01.581Z,100.0
2022-12-18T07:33:01.567Z,100.0
2022-12-18T07:34:01.829Z,100.0
2022-12-18T07:35:01.853Z,100.0
2022-12-18T07:36:03.669Z,100.0
2022-12-18T07:37:01.926Z,100.0
2022-12-18T07:38:01.445Z,100.0
2022-12-18T07:39:01.797Z,100.0
2022-12-18T07:40:01.516Z,100.0
2022-12-18T07:41:02.551Z,100.0
2022-12-18T07:42:01.797Z,100.0
2022-12-18T07:43:01.845Z,100.0
2022-12-18T07:44:01.800Z,100.0
2022-12-18T07:45:02.572Z,100.0
2022-12-18T07:46:01.560Z,100.0
2022-12-18T07:47:01.836Z,100.0
2022-12-18T07:48:01.452Z,100.0
2022-12-18T07:49:01.458Z,100.0
2022-12-18T07:50:01.485Z,100.0
2022-12-18T07:51:03.117Z,100.0
2022-12-18T07:52:01.458Z,100.0
2022-12-18T07:53:01.463Z,100.0
2022-12-18T07:54:01.451Z,100.0
2022-12-18T07:55:02.664Z,100.0
2022-12-18T07:56:26.534Z,100.0
2022-12-18T07:57:01.607Z,100.0
2022-12-18T07:58:02.279Z,100.0
2022-12-18T07:59:01.537Z,100.0
2022-12-18T08:00:01.844Z,100.0
2022-12-18T08:01:04.491Z,100.0
2022-12-18T08:02:01.889Z,100.0
2022-12-18T08:03:02.104Z,100.0
2022-12-18T08:04:01.461Z,100.0
2022-12-18T08:05:01.450Z,100.0
2022-12-18T08:06:02.364Z,100.0
2022-12-18T08:07:01.551Z,100.0
2022-12-18T08:08:01.789Z,100.0
2022-12-18T08:09:01.464Z,100.0
2022-12-18T08:10:01.854Z,100.0
2022-12-18T08:11:02.290Z,100.0
2022-12-18T08:12:01.458Z,100.0
2022-12-18T08:13:04.859Z,100.0
2022-12-18T08:14:01.824Z,100.0
2022-12-18T08:15:01.469Z,100.0
2022-12-18T08:16:04.207Z,100.0
2022-12-18T08:17:02.033Z,100.0
2022-12-18T08:18:01.443Z,100.0
2022-12-18T08:19:02.240Z,100.0
2022-12-18T08:20:01.488Z,100.0
2022-12-18T08:21:09.427Z,100.0
2022-12-18T08:22:01.778Z,100.0
2022-12-18T08:23:01.820Z,100.0
2022-12-18T08:24:02.356Z,100.0
2022-12-18T08:25:01.967Z,100.0
2022-12-18T08:26:01.825Z,100.0
2022-12-18T08:27:29.755Z,100.0
2022-12-18T08:28:01.596Z,100.0
2022-12-18T08:29:01.963Z,100.0
2022-12-18T08:30:01.744Z,100.0
2022-12-18T08:31:01.534Z,100.0
2022-12-18T08:32:01.522Z,100.0
2022-12-18T08:33:01.463Z,100.0
2022-12-18T08:34:01.853Z,100.0
2022-12-18T08:35:01.818Z,100.0
2022-12-18T08:36:02.741Z,100.0
2022-12-18T08:37:01.798Z,100.0
2022-12-18T08:38:01.446Z,100.0
2022-12-18T08:39:01.820Z,100.0
2022-12-18T08:40:02.342Z,100.0
2022-12-18T08:41:03.501Z,100.0
2022-12-18T08:42:04.191Z,100.0
2022-12-18T08:43:01.467Z,100.0
2022-12-18T08:44:01.476Z,100.0
2022-12-18T08:45:02.149Z,100.0
2022-12-18T08:46:01.853Z,100.0
2022-12-18T08:47:01.803Z,100.0
2022-12-18T08:48:01.465Z,100.0
2022-12-18T08:49:02.409Z,100.0
2022-12-18T08:50:02.453Z,100.0
2022-12-18T08:51:01.891Z,100.0
2022-12-18T08:52:01.970Z,100.0
2022-12-18T08:53:01.843Z,100.0
2022-12-18T08:54:02.390Z,100.0
2022-12-18T08:55:01.787Z,100.0
2022-12-18T08:56:02.012Z,100.0
2022-12-18T08:57:01.836Z,100.0
2022-12-18T08:58:01.469Z,100.0
2022-12-18T08:59:02.117Z,100.0
2022-12-18T09:00:01.443Z,100.0
2022-12-18T09:01:02.707Z,100.0
2022-12-18T09:02:01.995Z,100.0
2022-12-18T09:03:01.584Z,100.0
2022-12-18T09:04:01.930Z,100.0
2022-12-18T09:05:01.788Z,100.0
2022-12-18T09:06:01.827Z,100.0
2022-12-18T09:07:01.819Z,100.0
2022-12-18T09:08:01.484Z,100.0
2022-12-18T09:09:02.016Z,100.0
2022-12-18T09:10:01.482Z,100.0
2022-12-18T09:11:03.130Z,100.0
2022-12-18T09:12:01.704Z,100.0
2022-12-18T09:13:01.456Z,100.0
2022-12-18T09:14:02.187Z,100.0
2022-12-18T09:15:01.835Z,100.0
2022-12-18T09:16:04.016Z,100.0
2022-12-18T09:17:02.020Z,100.0
2022-12-18T09:18:01.463Z,100.0
2022-12-18T09:19:04.368Z,100.0
2022-12-18T09:20:01.793Z,100.0
2022-12-18T09:21:09.333Z,100.0
2022-12-18T09:22:01.450Z,100.0
2022-12-18T09:23:02.177Z,100.0
2022-12-18T09:24:01.846Z,100.0
2022-12-18T09:25:01.812Z,100.0
2022-12-18T09:26:01.802Z,100.0
2022-12-18T09:27:01.961Z,100.0
2022-12-18T09:28:02.546Z,100.0
2022-12-18T09:29:02.736Z,100.0
2022-12-18T09:30:03.278Z,100.0
2022-12-18T09:31:06.001Z,100.0
2022-12-18T09:32:01.462Z,100.0
2022-12-18T09:33:01.495Z,100.0
2022-12-18T09:34:02.081Z,100.0
2022-12-18T09:35:01.826Z,100.0
2022-12-18T09:36:03.325Z,100.0
2022-12-18T09:37:01.463Z,100.0
2022-12-18T09:38:01.452Z,100.0
2022-12-18T09:39:07.863Z,100.0
2022-12-18T09:40:01.445Z,100.0
2022-12-18T09:41:06.815Z,100.0
2022-12-18T09:42:01.848Z,100.0
2022-12-18T09:43:05.185Z,100.0
2022-12-18T09:44:11.465Z,100.0
2022-12-18T09:45:03.772Z,100.0
2022-12-18T09:46:06.564Z,100.0
2022-12-18T09:47:10.133Z,100.0
2022-12-18T09:48:02.359Z,100.0
2022-12-18T09:49:05.332Z,100.0
2022-12-18T09:50:17.267Z,100.0
2022-12-18T09:51:11.651Z,100.0
2022-12-18T09:52:08.652Z,100.0
2022-12-18T09:53:06.861Z,100.0
2022-12-18T09:54:07.084Z,100.0
2022-12-18T09:55:06.669Z,100.0
2022-12-18T09:56:04.368Z,100.0
2022-12-18T09:57:02.200Z,100.0
2022-12-18T09:58:11.753Z,100.0
2022-12-18T09:59:04.273Z,100.0
2022-12-18T10:00:11.773Z,100.0
2022-12-18T10:01:01.992Z,100.0
2022-12-18T10:02:15.540Z,100.0
2022-12-18T10:03:09.141Z,100.0
2022-12-18T10:04:01.523Z,100.0
2022-12-18T10:05:08.369Z,100.0
2022-12-18T10:06:11.139Z,100.0
2022-12-18T10:07:11.626Z,100.0
2022-12-18T10:08:11.249Z,100.0
2022-12-18T10:09:11.585Z,100.0
2022-12-18T10:10:11.809Z,100.0
2022-12-18T10:11:12.341Z,100.0
2022-12-18T10:12:08.697Z,100.0
2022-12-18T10:13:12.671Z,100.0
2022-12-18T10:14:10.053Z,100.0
2022-12-18T10:15:10.658Z,100.0
2022-12-18T10:16:12.904Z,100.0
2022-12-18T10:17:14.092Z,100.0
2022-12-18T10:18:18.732Z,100.0
2022-12-18T10:19:12.671Z,100.0
2022-12-18T10:20:10.759Z,100.0
2022-12-18T10:21:10.686Z,100.0
2022-12-18T10:22:11.415Z,100.0
2022-12-18T10:23:10.734Z,100.0
2022-12-18T10:24:16.187Z,100.0
2022-12-18T10:25:12.899Z,100.0
2022-12-18T10:26:04.502Z,100.0
2022-12-18T10:27:14.182Z,100.0
2022-12-18T10:28:12.745Z,100.0
2022-12-18T10:29:05.568Z,100.0
2022-12-18T10:30:11.562Z,100.0
2022-12-18T10:31:02.155Z,100.0
2022-12-18T10:32:01.469Z,100.0
2022-12-18T10:33:02.284Z,100.0
2022-12-18T10:34:01.455Z,100.0
2022-12-18T10:35:01.849Z,100.0
2022-12-18T10:36:01.458Z,100.0
2022-12-18T10:37:06.559Z,100.0
2022-12-18T10:38:06.807Z,100.0
2022-12-18T10:39:15.614Z,100.0
2022-12-18T10:40:09.478Z,100.0
2022-12-18T10:41:03.701Z,100.0
2022-12-18T10:42:11.680Z,100.0
2022-12-18T10:43:04.757Z,100.0
2022-12-18T10:44:14.980Z,100.0
2022-12-18T10:45:04.180Z,100.0
2022-12-18T10:46:12.275Z,100.0
2022-12-18T10:47:11.704Z,100.0
2022-12-18T10:48:01.869Z,100.0
2022-12-18T10:49:01.853Z,100.0
2022-12-18T10:50:01.989Z,100.0
2022-12-18T10:51:12.674Z,100.0
2022-12-18T10:52:12.917Z,100.0
2022-12-18T10:53:04.763Z,100.0
2022-12-18T10:54:04.333Z,100.0
2022-12-18T10:55:04.538Z,100.0
2022-12-18T10:56:04.635Z,100.0
2022-12-18T10:57:15.270Z,100.0
2022-12-18T10:58:26.323Z,100.0
2022-12-18T10:59:04.176Z,100.0
2022-12-18T11:00:20.874Z,100.0
2022-12-18T11:01:07.697Z,100.0
2022-12-18T11:02:01.981Z,100.0
2022-12-18T11:03:01.864Z,100.0
2022-12-18T11:04:08.396Z,100.0
2022-12-18T11:05:03.342Z,100.0
2022-12-18T11:06:06.281Z,100.0
2022-12-18T11:07:04.833Z,100.0
2022-12-18T11:08:02.072Z,100.0
2022-12-18T11:09:09.358Z,100.0
2022-12-18T11:10:02.545Z,100.0
2022-12-18T11:11:02.178Z,100.0
2022-12-18T11:12:04.369Z,100.0
2022-12-18T11:13:15.469Z,100.0
2022-12-18T11:14:04.246Z,100.0
2022-12-18T11:15:01.617Z,100.0
2022-12-18T11:16:02.072Z,100.0
2022-12-18T11:17:25.825Z,100.0
2022-12-18T11:18:01.535Z,100.0
2022-12-18T11:19:14.558Z,100.0
2022-12-18T11:20:04.472Z,100.0
2022-12-18T11:21:08.145Z,100.0
2022-12-18T11:22:13.059Z,100.0
2022-12-18T11:23:05.142Z,100.0
2022-12-18T11:24:01.689Z,100.0
2022-12-18T11:25:34.469Z,100.0
2022-12-18T11:26:04.438Z,100.0
2022-12-18T11:27:04.545Z,100.0
2022-12-18T11:28:04.598Z,100.0
2022-12-18T11:29:09.840Z,100.0
2022-12-18T11:30:09.476Z,100.0
2022-12-18T11:31:17.262Z,100.0
2022-12-18T11:32:20.869Z,100.0
2022-12-18T11:33:05.662Z,100.0
2022-12-18T11:34:29.238Z,100.0
2022-12-18T11:35:14.950Z,100.0
2022-12-18T11:36:05.937Z,100.0
2022-12-18T11:37:03.803Z,100.0
2022-12-18T11:38:10.535Z,100.0
2022-12-18T11:39:09.377Z,100.0
2022-12-18T11:40:09.752Z,100.0
2022-12-18T11:41:07.528Z,100.0
2022-12-18T11:42:09.057Z,100.0
2022-12-18T11:43:09.917Z,100.0
2022-12-18T11:44:07.201Z,100.0
2022-12-18T11:45:17.872Z,100.0
2022-12-18T11:46:07.289Z,100.0
2022-12-18T11:47:09.832Z,100.0
2022-12-18T11:48:09.702Z,100.0
2022-12-18T11:49:07.872Z,100.0
2022-12-18T11:50:12.150Z,100.0
2022-12-18T11:51:06.193Z,100.0
2022-12-18T11:52:11.135Z,100.0
2022-12-18T11:53:05.580Z,100.0
2022-12-18T11:54:10.130Z,100.0
2022-12-18T11:55:11.703Z,100.0
2022-12-18T11:56:17.525Z,100.0
2022-12-18T11:57:11.633Z,100.0
2022-12-18T11:58:10.622Z,100.0
2022-12-18T11:59:17.555Z,100.0
2022-12-18T12:00:05.135Z,100.0
2022-12-18T12:01:12.948Z,100.0
2022-12-18T12:02:20.776Z,100.0
2022-12-18T12:03:20.570Z,100.0
2022-12-18T12:04:18.708Z,100.0
2022-12-18T12:05:19.722Z,100.0
2022-12-18T12:06:10.412Z,100.0
2022-12-18T12:07:16.587Z,100.0
2022-12-18T12:08:10.327Z,100.0
2022-12-18T12:09:10.080Z,100.0
2022-12-18T12:10:12.579Z,100.0
2022-12-18T12:11:13.666Z,100.0
2022-12-18T12:12:20.667Z,100.0
2022-12-18T12:13:20.875Z,100.0
2022-12-18T12:14:15.190Z,100.0
2022-12-18T12:15:13.248Z,100.0
2022-12-18T12:16:16.008Z,100.0
2022-12-18T12:17:10.410Z,100.0
2022-12-18T12:18:11.438Z,100.0
2022-12-18T12:19:20.596Z,100.0
2022-12-18T12:20:13.282Z,100.0
2022-12-18T12:21:11.074Z,100.0
2022-12-18T12:22:12.797Z,100.0
2022-12-18T12:23:11.627Z,100.0
2022-12-18T12:24:19.908Z,100.0
2022-12-18T12:25:14.436Z,100.0
2022-12-18T12:26:06.300Z,100.0
2022-12-18T12:27:06.996Z,100.0
2022-12-18T12:28:15.806Z,100.0
2022-12-18T12:29:10.642Z,100.0
2022-12-18T12:30:14.859Z,100.0
2022-12-18T12:31:05.867Z,100.0
2022-12-18T12:32:11.553Z,100.0
2022-12-18T12:33:12.379Z,100.0
2022-12-18T12:34:11.422Z,100.0
2022-12-18T12:35:11.300Z,100.0
2022-12-18T12:36:13.487Z,100.0
2022-12-18T12:37:16.107Z,100.0
2022-12-18T12:38:09.484Z,100.0
2022-12-18T12:39:08.439Z,100.0
2022-12-18T12:40:11.004Z,100.0
2022-12-18T12:41:05.558Z,100.0
2022-12-18T12:42:04.398Z,100.0
2022-12-18T12:43:10.488Z,100.0
2022-12-18T12:44:07.126Z,100.0
2022-12-18T12:45:07.115Z,100.0
2022-12-18T12:46:05.575Z,100.0
2022-12-18T12:47:11.556Z,100.0
2022-12-18T12:48:04.468Z,100.0
2022-12-18T12:49:03.787Z,100.0
2022-12-18T12:50:11.599Z,100.0
2022-12-18T12:51:09.580Z,100.0
2022-12-18T12:52:12.666Z,100.0
2022-12-18T12:53:06.156Z,100.0
2022-12-18T12:54:05.511Z,100.0